Terminal Aerodrome Forecast
Issued by NWS Shreveport, LA

Home | Current Version | Previous Version | Text Only | Print | Product List | Glossary On
Versions: 1 2 3 4 5 6 7 8 9 10 11 12 13 14 15 16 17 18
000
FTUS44 KSHV 301120
TAFGGG
TAF
KGGG 301120Z 3012/3112 20005KT P6SM OVC015
     FM301600 16007KT P6SM OVC020
      TEMPO 3018/3022 BKN030
     FM302200 18007KT P6SM SCT040
     FM310700 17006KT P6SM BKN015
      TEMPO 3110/3112 4SM BR OVC008=

USA.gov is the U.S. government's official web portal to all federal, state and local government web resources and services.